sensor_id;sensor_type;location;lat;lon;timestamp;pressure;altitude;pressure_sealevel;temperature;humidity
71716;BME280;59568;52.128;5.434;2024-03-06T00:00:12;101948.19;;;5.64;100.00
71716;BME280;59568;52.128;5.434;2024-03-06T00:02:40;101955.38;;;5.62;100.00
71716;BME280;59568;52.128;5.434;2024-03-06T00:05:07;101958.19;;;5.60;100.00
71716;BME280;59568;52.128;5.434;2024-03-06T00:07:35;101956.38;;;5.60;100.00
71716;BME280;59568;52.128;5.434;2024-03-06T00:10:03;101961.22;;;5.57;100.00
71716;BME280;59568;52.128;5.434;2024-03-06T00:12:32;101963.16;;;5.50;100.00
71716;BME280;59568;52.128;5.434;2024-03-06T00:15:00;101974.72;;;5.47;100.00
71716;BME280;59568;52.128;5.434;2024-03-06T00:17:26;101970.00;;;5.44;100.00
71716;BME280;59568;52.128;5.434;2024-03-06T00:19:54;101973.16;;;5.46;100.00
71716;BME280;59568;52.128;5.434;2024-03-06T00:22:21;101977.09;;;5.49;100.00
71716;BME280;59568;52.128;5.434;2024-03-06T00:24:51;101979.28;;;5.52;100.00
71716;BME280;59568;52.128;5.434;2024-03-06T00:27:18;101979.84;;;5.54;100.00
71716;BME280;59568;52.128;5.434;2024-03-06T00:29:45;101976.22;;;5.55;100.00
71716;BME280;59568;52.128;5.434;2024-03-06T00:32:12;101982.22;;;5.55;100.00
71716;BME280;59568;52.128;5.434;2024-03-06T00:34:39;101983.22;;;5.54;100.00
71716;BME280;59568;52.128;5.434;2024-03-06T00:37:06;101977.47;;;5.52;100.00
71716;BME280;59568;52.128;5.434;2024-03-06T00:39:33;101988.81;;;5.51;100.00
71716;BME280;59568;52.128;5.434;2024-03-06T00:42:00;101991.66;;;5.50;100.00
71716;BME280;59568;52.128;5.434;2024-03-06T00:44:27;101985.09;;;5.47;100.00
71716;BME280;59568;52.128;5.434;2024-03-06T00:46:54;101991.53;;;5.45;100.00
71716;BME280;59568;52.128;5.434;2024-03-06T00:49:21;101990.75;;;5.44;100.00
71716;BME280;59568;52.128;5.434;2024-03-06T00:51:48;101983.97;;;5.43;100.00
71716;BME280;59568;52.128;5.434;2024-03-06T00:54:16;101993.56;;;5.43;100.00
71716;BME280;59568;52.128;5.434;2024-03-06T00:56:43;101994.78;;;5.40;100.00
71716;BME280;59568;52.128;5.434;2024-03-06T00:59:10;101994.78;;;5.40;100.00
71716;BME280;59568;52.128;5.434;2024-03-06T01:01:38;101992.97;;;5.40;100.00
71716;BME280;59568;52.128;5.434;2024-03-06T01:04:04;101999.97;;;5.40;100.00
71716;BME280;59568;52.128;5.434;2024-03-06T01:06:32;102001.53;;;5.41;100.00
71716;BME280;59568;52.128;5.434;2024-03-06T01:08:59;102007.75;;;5.40;100.00
71716;BME280;59568;52.128;5.434;2024-03-06T01:11:26;102014.75;;;5.39;100.00
71716;BME280;59568;52.128;5.434;2024-03-06T01:13:54;102012.94;;;5.40;100.00
71716;BME280;59568;52.128;5.434;2024-03-06T01:16:21;102010.56;;;5.38;100.00
71716;BME280;59568;52.128;5.434;2024-03-06T01:18:48;102011.34;;;5.39;100.00
71716;BME280;59568;52.128;5.434;2024-03-06T01:21:15;102018.13;;;5.40;100.00
71716;BME280;59568;52.128;5.434;2024-03-06T01:23:42;102018.69;;;5.42;100.00
71716;BME280;59568;52.128;5.434;2024-03-06T01:26:10;102023.09;;;5.42;100.00
71716;BME280;59568;52.128;5.434;2024-03-06T01:28:38;102024.66;;;5.43;100.00
71716;BME280;59568;52.128;5.434;2024-03-06T01:31:06;102016.09;;;5.42;100.00
71716;BME280;59568;52.128;5.434;2024-03-06T01:33:33;102021.06;;;5.44;100.00
71716;BME280;59568;52.128;5.434;2024-03-06T01:36:00;102029.06;;;5.42;100.00
71716;BME280;59568;52.128;5.434;2024-03-06T01:38:30;102034.25;;;5.42;100.00
71716;BME280;59568;52.128;5.434;2024-03-06T01:40:57;102037.41;;;5.44;100.00
71716;BME280;59568;52.128;5.434;2024-03-06T01:43:25;102040.56;;;5.46;100.00
71716;BME280;59568;52.128;5.434;2024-03-06T01:45:53;102036.38;;;5.45;100.00
71716;BME280;59568;52.128;5.434;2024-03-06T01:48:23;102035.38;;;5.46;100.00
71716;BME280;59568;52.128;5.434;2024-03-06T01:50:51;102028.59;;;5.45;100.00
71716;BME280;59568;52.128;5.434;2024-03-06T01:53:20;102020.25;;;5.43;100.00
71716;BME280;59568;52.128;5.434;2024-03-06T01:55:48;102029.06;;;5.42;100.00
71716;BME280;59568;52.128;5.434;2024-03-06T01:58:15;102026.69;;;5.40;100.00
71716;BME280;59568;52.128;5.434;2024-03-06T02:00:42;102032.53;;;5.36;100.00
71716;BME280;59568;52.128;5.434;2024-03-06T02:03:10;102027.66;;;5.28;100.00
71716;BME280;59568;52.128;5.434;2024-03-06T02:05:38;102031.13;;;5.22;100.00
71716;BME280;59568;52.128;5.434;2024-03-06T02:08:06;102031.66;;;5.12;100.00
71716;BME280;59568;52.128;5.434;2024-03-06T02:10:33;102031.19;;;5.03;100.00
71716;BME280;59568;52.128;5.434;2024-03-06T02:13:01;102032.84;;;4.97;100.00
71716;BME280;59568;52.128;5.434;2024-03-06T02:15:28;102032.88;;;4.91;100.00
71716;BME280;59568;52.128;5.434;2024-03-06T02:17:55;102037.16;;;4.85;100.00
71716;BME280;59568;52.128;5.434;2024-03-06T02:20:25;102038.03;;;4.79;100.00
71716;BME280;59568;52.128;5.434;2024-03-06T02:22:52;102041.69;;;4.71;100.00
71716;BME280;59568;52.128;5.434;2024-03-06T02:25:19;102039.41;;;4.63;100.00
71716;BME280;59568;52.128;5.434;2024-03-06T02:27:46;102039.09;;;4.53;100.00
71716;BME280;59568;52.128;5.434;2024-03-06T02:30:19;102037.38;;;4.47;100.00
71716;BME280;59568;52.128;5.434;2024-03-06T02:32:47;102033.03;;;4.40;100.00
71716;BME280;59568;52.128;5.434;2024-03-06T02:35:14;102039.44;;;4.38;100.00
71716;BME280;59568;52.128;5.434;2024-03-06T02:37:43;102039.06;;;4.34;100.00
71716;BME280;59568;52.128;5.434;2024-03-06T02:40:11;102047.69;;;4.28;100.00
71716;BME280;59568;52.128;5.434;2024-03-06T02:42:38;102040.38;;;4.18;100.00
71716;BME280;59568;52.128;5.434;2024-03-06T02:45:06;102047.44;;;4.11;100.00
71716;BME280;59568;52.128;5.434;2024-03-06T02:47:36;102047.25;;;4.06;100.00
71716;BME280;59568;52.128;5.434;2024-03-06T02:50:03;102052.28;;;4.01;100.00
71716;BME280;59568;52.128;5.434;2024-03-06T02:52:31;102046.75;;;3.97;100.00
71716;BME280;59568;52.128;5.434;2024-03-06T02:54:59;102048.16;;;3.93;100.00
71716;BME280;59568;52.128;5.434;2024-03-06T02:57:27;102046.22;;;3.89;100.00
71716;BME280;59568;52.128;5.434;2024-03-06T02:59:58;102050.00;;;3.86;100.00
71716;BME280;59568;52.128;5.434;2024-03-06T03:02:25;102045.25;;;3.83;100.00
71716;BME280;59568;52.128;5.434;2024-03-06T03:04:52;102057.03;;;3.79;100.00
71716;BME280;59568;52.128;5.434;2024-03-06T03:07:19;102055.84;;;3.75;100.00
71716;BME280;59568;52.128;5.434;2024-03-06T03:09:48;102058.06;;;3.71;100.00
71716;BME280;59568;52.128;5.434;2024-03-06T03:12:15;102059.69;;;3.66;100.00
71716;BME280;59568;52.128;5.434;2024-03-06T03:14:42;102052.56;;;3.61;100.00
71716;BME280;59568;52.128;5.434;2024-03-06T03:17:09;102056.94;;;3.60;100.00
71716;BME280;59568;52.128;5.434;2024-03-06T03:19:37;102054.75;;;3.57;100.00
71716;BME280;59568;52.128;5.434;2024-03-06T03:22:07;102053.19;;;3.56;100.00
71716;BME280;59568;52.128;5.434;2024-03-06T03:24:36;102053.59;;;3.53;100.00
71716;BME280;59568;52.128;5.434;2024-03-06T03:27:03;102051.22;;;3.52;100.00
71716;BME280;59568;52.128;5.434;2024-03-06T03:29:30;102067.94;;;3.49;100.00
71716;BME280;59568;52.128;5.434;2024-03-06T03:31:57;102063.19;;;3.46;100.00
71716;BME280;59568;52.128;5.434;2024-03-06T03:34:24;102067.53;;;3.46;100.00
71716;BME280;59568;52.128;5.434;2024-03-06T03:36:51;102053.84;;;3.45;100.00
71716;BME280;59568;52.128;5.434;2024-03-06T03:39:18;102052.47;;;3.43;100.00
71716;BME280;59568;52.128;5.434;2024-03-06T03:41:48;102060.81;;;3.38;100.00
71716;BME280;59568;52.128;5.434;2024-03-06T03:44:17;102063.06;;;3.34;100.00
71716;BME280;59568;52.128;5.434;2024-03-06T03:46:45;102069.63;;;3.30;100.00
71716;BME280;59568;52.128;5.434;2024-03-06T03:49:13;102068.81;;;3.30;100.00
71716;BME280;59568;52.128;5.434;2024-03-06T03:51:40;102064.28;;;3.25;100.00
71716;BME280;59568;52.128;5.434;2024-03-06T03:54:07;102079.19;;;3.23;100.00
71716;BME280;59568;52.128;5.434;2024-03-06T03:56:34;102078.41;;;3.23;100.00
71716;BME280;59568;52.128;5.434;2024-03-06T03:59:02;102074.66;;;3.18;100.00
71716;BME280;59568;52.128;5.434;2024-03-06T04:01:29;102073.28;;;3.16;100.00
71716;BME280;59568;52.128;5.434;2024-03-06T04:03:56;102068.91;;;3.10;100.00
71716;BME280;59568;52.128;5.434;2024-03-06T04:06:23;102079.66;;;3.07;100.00
71716;BME280;59568;52.128;5.434;2024-03-06T04:08:50;102070.91;;;3.01;100.00
71716;BME280;59568;52.128;5.434;2024-03-06T04:11:18;102074.13;;;2.96;100.00
71716;BME280;59568;52.128;5.434;2024-03-06T04:13:45;102076.72;;;2.90;100.00
71716;BME280;59568;52.128;5.434;2024-03-06T04:16:17;102077.13;;;2.87;100.00
71716;BME280;59568;52.128;5.434;2024-03-06T04:18:45;102081.69;;;2.85;100.00
71716;BME280;59568;52.128;5.434;2024-03-06T04:21:12;102078.13;;;2.79;100.00
71716;BME280;59568;52.128;5.434;2024-03-06T04:23:41;102077.72;;;2.75;100.00
71716;BME280;59568;52.128;5.434;2024-03-06T04:26:08;102078.16;;;2.72;100.00
71716;BME280;59568;52.128;5.434;2024-03-06T04:28:35;102075.38;;;2.67;100.00
71716;BME280;59568;52.128;5.434;2024-03-06T04:31:02;102072.63;;;2.62;100.00
71716;BME280;59568;52.128;5.434;2024-03-06T04:33:29;102083.31;;;2.59;100.00
71716;BME280;59568;52.128;5.434;2024-03-06T04:35:56;102089.69;;;2.56;100.00
71716;BME280;59568;52.128;5.434;2024-03-06T04:38:23;102096.84;;;2.54;100.00
71716;BME280;59568;52.128;5.434;2024-03-06T04:40:49;102099.81;;;2.51;100.00
71716;BME280;59568;52.128;5.434;2024-03-06T04:43:17;102094.28;;;2.48;100.00
71716;BME280;59568;52.128;5.434;2024-03-06T04:45:44;102103.59;;;2.42;100.00
71716;BME280;59568;52.128;5.434;2024-03-06T04:48:11;102105.97;;;2.37;100.00
71716;BME280;59568;52.128;5.434;2024-03-06T04:50:38;102103.19;;;2.32;100.00
71716;BME280;59568;52.128;5.434;2024-03-06T04:53:05;102107.97;;;2.28;100.00
71716;BME280;59568;52.128;5.434;2024-03-06T04:55:32;102113.50;;;2.25;100.00
71716;BME280;59568;52.128;5.434;2024-03-06T04:57:59;102111.13;;;2.24;100.00
71716;BME280;59568;52.128;5.434;2024-03-06T05:00:26;102113.91;;;2.22;100.00
71716;BME280;59568;52.128;5.434;2024-03-06T05:02:55;102118.06;;;2.23;100.00
71716;BME280;59568;52.128;5.434;2024-03-06T05:05:40;102125.78;;;2.23;100.00
71716;BME280;59568;52.128;5.434;2024-03-06T05:08:24;102115.47;;;2.23;100.00
71716;BME280;59568;52.128;5.434;2024-03-06T05:11:09;102117.47;;;2.21;100.00
71716;BME280;59568;52.128;5.434;2024-03-06T05:13:53;102128.97;;;2.18;100.00
71716;BME280;59568;52.128;5.434;2024-03-06T05:16:37;102126.59;;;2.17;100.00
71716;BME280;59568;52.128;5.434;2024-03-06T05:19:21;102133.13;;;2.13;100.00
71716;BME280;59568;52.128;5.434;2024-03-06T05:22:06;102138.69;;;2.10;100.00
71716;BME280;59568;52.128;5.434;2024-03-06T05:24:50;102139.66;;;2.09;100.00
71716;BME280;59568;52.128;5.434;2024-03-06T05:27:35;102142.84;;;2.11;100.00
71716;BME280;59568;52.128;5.434;2024-03-06T05:30:19;102156.34;;;2.13;100.00
71716;BME280;59568;52.128;5.434;2024-03-06T05:33:04;102154.75;;;2.12;100.00
71716;BME280;59568;52.128;5.434;2024-03-06T05:35:48;102149.38;;;2.07;100.00
71716;BME280;59568;52.128;5.434;2024-03-06T05:38:32;102164.66;;;2.02;100.00
71716;BME280;59568;52.128;5.434;2024-03-06T05:41:17;102162.88;;;1.95;100.00
71716;BME280;59568;52.128;5.434;2024-03-06T05:44:03;102162.63;;;1.90;100.00
71716;BME280;59568;52.128;5.434;2024-03-06T05:46:48;102162.22;;;1.87;100.00
71716;BME280;59568;52.128;5.434;2024-03-06T05:49:32;102165.81;;;1.86;100.00
71716;BME280;59568;52.128;5.434;2024-03-06T05:52:16;102168.56;;;1.84;100.00
71716;BME280;59568;52.128;5.434;2024-03-06T05:55:01;102170.53;;;1.82;100.00
71716;BME280;59568;52.128;5.434;2024-03-06T05:57:45;102173.91;;;1.83;100.00
71716;BME280;59568;52.128;5.434;2024-03-06T06:00:29;102180.50;;;1.85;100.00
71716;BME280;59568;52.128;5.434;2024-03-06T06:02:57;102180.88;;;1.89;100.00
71716;BME280;59568;52.128;5.434;2024-03-06T06:05:24;102186.84;;;1.89;100.00
71716;BME280;59568;52.128;5.434;2024-03-06T06:07:51;102202.31;;;1.89;100.00
71716;BME280;59568;52.128;5.434;2024-03-06T06:10:18;102202.31;;;1.89;100.00
71716;BME280;59568;52.128;5.434;2024-03-06T06:12:48;102208.03;;;1.85;100.00
71716;BME280;59568;52.128;5.434;2024-03-06T06:15:16;102203.44;;;1.80;100.00
71716;BME280;59568;52.128;5.434;2024-03-06T06:17:45;102208.00;;;1.78;100.00
71716;BME280;59568;52.128;5.434;2024-03-06T06:20:13;102210.41;;;1.79;100.00
71716;BME280;59568;52.128;5.434;2024-03-06T06:22:45;102211.00;;;1.82;100.00
71716;BME280;59568;52.128;5.434;2024-03-06T06:25:12;102214.38;;;1.82;100.00
71716;BME280;59568;52.128;5.434;2024-03-06T06:27:39;102220.31;;;1.83;100.00
71716;BME280;59568;52.128;5.434;2024-03-06T06:30:07;102222.69;;;1.84;100.00
71716;BME280;59568;52.128;5.434;2024-03-06T06:32:40;102218.94;;;1.87;100.00
71716;BME280;59568;52.128;5.434;2024-03-06T06:35:12;102222.13;;;1.89;100.00
71716;BME280;59568;52.128;5.434;2024-03-06T06:37:41;102229.47;;;1.92;100.00
71716;BME280;59568;52.128;5.434;2024-03-06T06:40:08;102234.03;;;1.96;100.00
71716;BME280;59568;52.128;5.434;2024-03-06T06:42:36;102240.03;;;2.04;100.00
71716;BME280;59568;52.128;5.434;2024-03-06T06:45:04;102248.38;;;2.06;100.00
71716;BME280;59568;52.128;5.434;2024-03-06T06:47:33;102252.16;;;2.10;100.00
71716;BME280;59568;52.128;5.434;2024-03-06T06:50:01;102259.91;;;2.16;100.00
71716;BME280;59568;52.128;5.434;2024-03-06T06:52:32;102261.88;;;2.21;100.00
71716;BME280;59568;52.128;5.434;2024-03-06T06:55:01;102263.91;;;2.26;100.00
71716;BME280;59568;52.128;5.434;2024-03-06T06:57:30;102271.47;;;2.34;100.00
71716;BME280;59568;52.128;5.434;2024-03-06T06:59:57;102262.94;;;2.40;100.00
71716;BME280;59568;52.128;5.434;2024-03-06T07:02:24;102267.50;;;2.45;100.00
71716;BME280;59568;52.128;5.434;2024-03-06T07:04:52;102276.66;;;2.54;100.00
71716;BME280;59568;52.128;5.434;2024-03-06T07:07:19;102278.25;;;2.62;100.00
71716;BME280;59568;52.128;5.434;2024-03-06T07:09:46;102285.44;;;2.66;100.00
71716;BME280;59568;52.128;5.434;2024-03-06T07:12:13;102291.78;;;2.70;100.00
71716;BME280;59568;52.128;5.434;2024-03-06T07:14:40;102297.75;;;2.77;100.00
71716;BME280;59568;52.128;5.434;2024-03-06T07:17:07;102297.34;;;2.80;100.00
71716;BME280;59568;52.128;5.434;2024-03-06T07:19:35;102302.53;;;2.87;100.00
71716;BME280;59568;52.128;5.434;2024-03-06T07:22:02;102303.72;;;2.91;100.00
71716;BME280;59568;52.128;5.434;2024-03-06T07:24:30;102304.13;;;2.95;100.00
71716;BME280;59568;52.128;5.434;2024-03-06T07:26:57;102301.75;;;3.00;100.00
71716;BME280;59568;52.128;5.434;2024-03-06T07:29:24;102305.91;;;3.08;100.00
71716;BME280;59568;52.128;5.434;2024-03-06T07:31:51;102310.50;;;3.12;100.00
71716;BME280;59568;52.128;5.434;2024-03-06T07:34:18;102313.88;;;3.13;100.00
71716;BME280;59568;52.128;5.434;2024-03-06T07:36:45;102313.28;;;3.24;100.00
71716;BME280;59568;52.128;5.434;2024-03-06T07:39:15;102312.06;;;3.33;100.00
71716;BME280;59568;52.128;5.434;2024-03-06T07:41:42;102320.44;;;3.42;100.00
71716;BME280;59568;52.128;5.434;2024-03-06T07:44:09;102317.63;;;3.50;100.00
71716;BME280;59568;52.128;5.434;2024-03-06T07:46:36;102326.34;;;3.63;100.00
71716;BME280;59568;52.128;5.434;2024-03-06T07:49:04;102323.13;;;3.74;100.00
71716;BME280;59568;52.128;5.434;2024-03-06T07:51:34;102328.91;;;3.83;100.00
71716;BME280;59568;52.128;5.434;2024-03-06T07:54:02;102336.63;;;3.89;100.00
71716;BME280;59568;52.128;5.434;2024-03-06T07:56:32;102338.22;;;3.97;100.00
71716;BME280;59568;52.128;5.434;2024-03-06T07:59:00;102343.31;;;4.10;100.00
71716;BME280;59568;52.128;5.434;2024-03-06T08:01:27;102334.38;;;4.13;100.00
71716;BME280;59568;52.128;5.434;2024-03-06T08:03:56;102346.06;;;4.22;100.00
71716;BME280;59568;52.128;5.434;2024-03-06T08:06:23;102350.63;;;4.33;100.00
71716;BME280;59568;52.128;5.434;2024-03-06T08:08:50;102349.75;;;4.46;100.00
71716;BME280;59568;52.128;5.434;2024-03-06T08:11:18;102351.91;;;4.56;100.00
71716;BME280;59568;52.128;5.434;2024-03-06T08:13:48;102348.69;;;4.60;100.00
71716;BME280;59568;52.128;5.434;2024-03-06T08:16:16;102349.44;;;4.68;100.00
71716;BME280;59568;52.128;5.434;2024-03-06T08:18:44;102346.03;;;4.74;100.00
71716;BME280;59568;52.128;5.434;2024-03-06T08:21:11;102349.38;;;4.81;100.00
71716;BME280;59568;52.128;5.434;2024-03-06T08:23:38;102356.50;;;4.86;100.00
71716;BME280;59568;52.128;5.434;2024-03-06T08:26:05;102356.44;;;4.99;100.00
71716;BME280;59568;52.128;5.434;2024-03-06T08:28:32;102364.94;;;5.06;100.00
71716;BME280;59568;52.128;5.434;2024-03-06T08:31:00;102366.50;;;5.14;100.00
71716;BME280;59568;52.128;5.434;2024-03-06T08:33:27;102365.44;;;5.22;100.00
71716;BME280;59568;52.128;5.434;2024-03-06T08:35:54;102374.16;;;5.27;100.00
71716;BME280;59568;52.128;5.434;2024-03-06T08:38:21;102377.28;;;5.36;100.00
71716;BME280;59568;52.128;5.434;2024-03-06T08:40:48;102376.00;;;5.45;100.00
71716;BME280;59568;52.128;5.434;2024-03-06T08:43:16;102386.69;;;5.55;100.00
71716;BME280;59568;52.128;5.434;2024-03-06T08:45:43;102383.25;;;5.62;100.00
71716;BME280;59568;52.128;5.434;2024-03-06T08:48:10;102388.16;;;5.70;100.00
71716;BME280;59568;52.128;5.434;2024-03-06T08:50:39;102394.50;;;5.74;100.00
71716;BME280;59568;52.128;5.434;2024-03-06T08:53:06;102395.22;;;5.81;100.00
71716;BME280;59568;52.128;5.434;2024-03-06T08:55:33;102399.56;;;5.87;100.00
71716;BME280;59568;52.128;5.434;2024-03-06T08:58:00;102402.31;;;5.92;100.00
71716;BME280;59568;52.128;5.434;2024-03-06T09:00:28;102407.41;;;6.06;100.00
71716;BME280;59568;52.128;5.434;2024-03-06T09:02:55;102406.09;;;6.15;100.00
71716;BME280;59568;52.128;5.434;2024-03-06T09:05:22;102410.22;;;6.23;100.00
71716;BME280;59568;52.128;5.434;2024-03-06T09:07:49;102411.16;;;6.28;100.00
71716;BME280;59568;52.128;5.434;2024-03-06T09:10:16;102413.44;;;6.36;100.00
71716;BME280;59568;52.128;5.434;2024-03-06T09:12:46;102419.34;;;6.44;100.00
71716;BME280;59568;52.128;5.434;2024-03-06T09:15:14;102418.72;;;6.48;100.00
71716;BME280;59568;52.128;5.434;2024-03-06T09:17:41;102427.97;;;6.56;100.00
71716;BME280;59568;52.128;5.434;2024-03-06T09:20:09;102427.91;;;6.63;100.00
71716;BME280;59568;52.128;5.434;2024-03-06T09:22:39;102433.38;;;6.73;100.00
71716;BME280;59568;52.128;5.434;2024-03-06T09:25:07;102428.66;;;6.82;100.00
71716;BME280;59568;52.128;5.434;2024-03-06T09:27:35;102437.63;;;6.97;100.00
71716;BME280;59568;52.128;5.434;2024-03-06T09:30:03;102445.63;;;7.14;100.00
71716;BME280;59568;52.128;5.434;2024-03-06T09:32:30;102442.34;;;7.19;100.00
71716;BME280;59568;52.128;5.434;2024-03-06T09:34:58;102448.16;;;7.33;100.00
71716;BME280;59568;52.128;5.434;2024-03-06T09:37:26;102452.00;;;7.42;100.00
71716;BME280;59568;52.128;5.434;2024-03-06T09:39:52;102448.28;;;7.50;100.00
71716;BME280;59568;52.128;5.434;2024-03-06T09:42:19;102459.81;;;7.54;100.00
71716;BME280;59568;52.128;5.434;2024-03-06T09:44:47;102450.88;;;7.62;100.00
71716;BME280;59568;52.128;5.434;2024-03-06T09:47:19;102459.97;;;7.71;100.00
71716;BME280;59568;52.128;5.434;2024-03-06T09:49:53;102462.09;;;7.74;100.00
71716;BME280;59568;52.128;5.434;2024-03-06T09:52:23;102465.72;;;7.73;100.00
71716;BME280;59568;52.128;5.434;2024-03-06T09:54:54;102461.88;;;7.87;100.00
71716;BME280;59568;52.128;5.434;2024-03-06T09:57:23;102459.50;;;7.97;100.00
71716;BME280;59568;52.128;5.434;2024-03-06T09:59:50;102468.53;;;8.07;100.00
71716;BME280;59568;52.128;5.434;2024-03-06T10:02:28;102473.72;;;8.07;100.00
71716;BME280;59568;52.128;5.434;2024-03-06T10:04:57;102473.97;;;7.93;100.00
71716;BME280;59568;52.128;5.434;2024-03-06T10:07:24;102468.88;;;7.87;100.00
71716;BME280;59568;52.128;5.434;2024-03-06T10:09:55;102473.28;;;8.10;100.00
71716;BME280;59568;52.128;5.434;2024-03-06T10:12:22;102477.13;;;8.43;100.00
71716;BME280;59568;52.128;5.434;2024-03-06T10:14:51;102480.44;;;8.67;100.00
71716;BME280;59568;52.128;5.434;2024-03-06T10:17:21;102474.88;;;8.75;100.00
71716;BME280;59568;52.128;5.434;2024-03-06T10:19:54;102478.03;;;8.77;100.00
71716;BME280;59568;52.128;5.434;2024-03-06T10:22:22;102478.59;;;8.79;100.00
71716;BME280;59568;52.128;5.434;2024-03-06T10:24:55;102478.44;;;8.57;100.00
71716;BME280;59568;52.128;5.434;2024-03-06T10:27:23;102481.09;;;8.45;100.00
71716;BME280;59568;52.128;5.434;2024-03-06T10:30:03;102474.47;;;8.54;100.00
71716;BME280;59568;52.128;5.434;2024-03-06T10:32:32;102479.25;;;8.57;100.00
71716;BME280;59568;52.128;5.434;2024-03-06T10:35:00;102485.88;;;8.65;100.00
71716;BME280;59568;52.128;5.434;2024-03-06T10:37:28;102479.78;;;8.71;100.00
71716;BME280;59568;52.128;5.434;2024-03-06T10:39:58;102487.22;;;8.79;100.00
71716;BME280;59568;52.128;5.434;2024-03-06T10:42:28;102497.72;;;9.13;100.00
71716;BME280;59568;52.128;5.434;2024-03-06T10:44:59;102487.94;;;9.20;100.00
71716;BME280;59568;52.128;5.434;2024-03-06T10:47:27;102484.50;;;9.32;100.00
71716;BME280;59568;52.128;5.434;2024-03-06T10:49:55;102483.22;;;9.51;100.00
71716;BME280;59568;52.128;5.434;2024-03-06T10:52:27;102487.25;;;9.76;100.00
71716;BME280;59568;52.128;5.434;2024-03-06T10:54:55;102487.16;;;9.71;100.00
71716;BME280;59568;52.128;5.434;2024-03-06T10:57:25;102487.72;;;9.73;100.00
71716;BME280;59568;52.128;5.434;2024-03-06T10:59:52;102486.75;;;9.79;100.00
71716;BME280;59568;52.128;5.434;2024-03-06T11:02:20;102488.97;;;9.53;100.00
71716;BME280;59568;52.128;5.434;2024-03-06T11:04:51;102497.03;;;9.35;100.00
71716;BME280;59568;52.128;5.434;2024-03-06T11:07:18;102492.22;;;9.44;100.00
71716;BME280;59568;52.128;5.434;2024-03-06T11:09:46;102496.34;;;9.56;100.00
71716;BME280;59568;52.128;5.434;2024-03-06T11:12:36;102493.31;;;9.82;100.00
71716;BME280;59568;52.128;5.434;2024-03-06T11:15:17;102496.78;;;10.04;100.00
71716;BME280;59568;52.128;5.434;2024-03-06T11:17:44;102492.38;;;9.88;100.00
71716;BME280;59568;52.128;5.434;2024-03-06T11:20:17;102501.25;;;9.87;100.00
71716;BME280;59568;52.128;5.434;2024-03-06T11:30:59;102497.56;;;10.44;100.00
71716;BME280;59568;52.128;5.434;2024-03-06T11:33:35;102491.22;;;10.34;100.00
71716;BME280;59568;52.128;5.434;2024-03-06T11:36:24;102496.81;;;10.26;100.00
71716;BME280;59568;52.128;5.434;2024-03-06T11:39:05;102508.75;;;10.22;100.00
71716;BME280;59568;52.128;5.434;2024-03-06T11:44:02;102494.91;;;10.61;100.00
71716;BME280;59568;52.128;5.434;2024-03-06T11:46:43;102496.44;;;10.56;100.00
71716;BME280;59568;52.128;5.434;2024-03-06T11:52:00;102501.06;;;10.76;100.00
71716;BME280;59568;52.128;5.434;2024-03-06T11:54:28;102503.09;;;10.96;100.00
71716;BME280;59568;52.128;5.434;2024-03-06T11:56:57;102509.09;;;11.19;100.00
71716;BME280;59568;52.128;5.434;2024-03-06T11:59:31;102501.16;;;11.09;100.00
71716;BME280;59568;52.128;5.434;2024-03-06T12:02:00;102501.69;;;11.11;100.00
71716;BME280;59568;52.128;5.434;2024-03-06T12:04:35;102505.72;;;11.24;100.00
71716;BME280;59568;52.128;5.434;2024-03-06T12:07:06;102512.09;;;11.33;100.00
71716;BME280;59568;52.128;5.434;2024-03-06T12:09:36;102504.94;;;11.55;100.00
71716;BME280;59568;52.128;5.434;2024-03-06T12:12:09;102508.19;;;11.68;100.00
71716;BME280;59568;52.128;5.434;2024-03-06T12:14:37;102496.41;;;11.70;100.00
71716;BME280;59568;52.128;5.434;2024-03-06T12:17:11;102508.25;;;11.78;100.00
71716;BME280;59568;52.128;5.434;2024-03-06T12:19:42;102503.78;;;11.78;100.00
71716;BME280;59568;52.128;5.434;2024-03-06T12:22:11;102502.78;;;11.85;100.00
71716;BME280;59568;52.128;5.434;2024-03-06T12:24:38;102506.34;;;12.06;100.00
71716;BME280;59568;52.128;5.434;2024-03-06T12:27:07;102510.09;;;12.20;100.00
71716;BME280;59568;52.128;5.434;2024-03-06T12:29:35;102513.19;;;12.17;100.00
71716;BME280;59568;52.128;5.434;2024-03-06T12:32:05;102506.94;;;12.23;100.00
71716;BME280;59568;52.128;5.434;2024-03-06T12:34:43;102503.81;;;12.26;100.00
71716;BME280;59568;52.128;5.434;2024-03-06T12:37:10;102508.78;;;12.23;100.00
71716;BME280;59568;52.128;5.434;2024-03-06T12:39:38;102508.56;;;12.34;100.00
71716;BME280;59568;52.128;5.434;2024-03-06T12:42:09;102505.91;;;12.29;100.00
71716;BME280;59568;52.128;5.434;2024-03-06T12:44:38;102505.72;;;12.41;100.00
71716;BME280;59568;52.128;5.434;2024-03-06T12:47:06;102505.81;;;12.62;100.00
71716;BME280;59568;52.128;5.434;2024-03-06T12:49:33;102508.16;;;12.63;100.00
71716;BME280;59568;52.128;5.434;2024-03-06T12:52:00;102502.38;;;12.61;100.00
71716;BME280;59568;52.128;5.434;2024-03-06T12:54:31;102500.28;;;12.58;100.00
71716;BME280;59568;52.128;5.434;2024-03-06T12:56:58;102506.03;;;12.55;100.00
71716;BME280;59568;52.128;5.434;2024-03-06T12:59:25;102494.50;;;12.56;100.00
71716;BME280;59568;52.128;5.434;2024-03-06T13:01:52;102496.13;;;12.83;100.00
71716;BME280;59568;52.128;5.434;2024-03-06T13:04:21;102500.31;;;12.78;100.00
71716;BME280;59568;52.128;5.434;2024-03-06T13:06:48;102491.94;;;12.82;100.00
71716;BME280;59568;52.128;5.434;2024-03-06T13:09:15;102490.41;;;13.06;100.00
71716;BME280;59568;52.128;5.434;2024-03-06T13:11:42;102493.56;;;12.98;100.00